createdAt,value
2023-05-19T00:01:22.330Z,1.58
2023-05-19T00:04:24.933Z,1.00
2023-05-19T00:07:32.855Z,1.40
2023-05-19T00:10:35.449Z,1.15
2023-05-19T00:13:38.155Z,1.77
2023-05-19T00:16:40.811Z,1.50
2023-05-19T00:19:45.379Z,1.13
2023-05-19T00:22:47.754Z,1.60
2023-05-19T00:25:50.071Z,1.40
2023-05-19T00:28:54.016Z,1.60
2023-05-19T00:31:57.089Z,1.30
2023-05-19T00:35:00.238Z,1.50
2023-05-19T00:38:02.630Z,1.50
2023-05-19T00:41:06.401Z,1.30
2023-05-19T00:44:08.854Z,1.88
2023-05-19T00:47:11.164Z,1.92
2023-05-19T00:50:13.510Z,1.75
2023-05-19T00:53:18.256Z,1.80
2023-05-19T00:56:22.022Z,1.77
2023-05-19T00:59:24.398Z,1.50
2023-05-19T01:02:26.832Z,1.60
2023-05-19T01:05:29.187Z,1.90
2023-05-19T01:08:36.490Z,1.40
2023-05-19T01:11:39.168Z,1.58
2023-05-19T01:14:42.382Z,1.95
2023-05-19T01:17:57.169Z,2.00
2023-05-19T01:21:30.761Z,1.40
2023-05-19T01:24:33.065Z,1.50
2023-05-19T01:27:35.326Z,1.50
2023-05-19T01:30:38.446Z,1.40
2023-05-19T01:33:43.816Z,1.70
2023-05-19T01:36:48.818Z,1.77
2023-05-19T01:39:52.425Z,1.60
2023-05-19T01:42:57.998Z,2.03
2023-05-19T01:46:02.692Z,1.90
2023-05-19T01:49:06.626Z,1.70
2023-05-19T01:52:08.900Z,2.00
2023-05-19T01:55:11.218Z,1.55
2023-05-19T01:58:38.119Z,1.67
2023-05-19T02:01:47.357Z,1.60
2023-05-19T02:05:00.030Z,1.60
2023-05-19T02:08:13.325Z,1.85
2023-05-19T02:11:41.520Z,1.67
2023-05-19T02:14:51.358Z,1.90
2023-05-19T02:17:55.881Z,1.95
2023-05-19T02:20:58.375Z,1.73
2023-05-19T02:24:01.047Z,1.50
2023-05-19T02:27:03.781Z,1.40
2023-05-19T02:30:08.420Z,1.55
2023-05-19T02:33:12.352Z,1.77
2023-05-19T02:36:15.060Z,1.90
2023-05-19T02:39:17.573Z,1.88
2023-05-19T02:42:20.288Z,1.90
2023-05-19T02:45:23.760Z,1.80
2023-05-19T02:48:26.090Z,2.03
2023-05-19T02:51:28.486Z,2.67
2023-05-19T02:54:31.826Z,2.00
2023-05-19T02:57:35.524Z,1.90
2023-05-19T03:00:37.991Z,2.13
2023-05-19T03:03:40.474Z,1.92
2023-05-19T03:06:45.444Z,1.95
2023-05-19T03:09:47.769Z,1.70
2023-05-19T03:12:50.187Z,1.98
2023-05-19T03:15:52.805Z,2.00
2023-05-19T03:18:55.850Z,2.00
2023-05-19T03:21:58.350Z,2.05
2023-05-19T03:25:00.824Z,1.75
2023-05-19T03:28:03.653Z,1.60
2023-05-19T03:31:06.349Z,1.90
2023-05-19T03:34:13.566Z,1.65
2023-05-19T03:37:16.330Z,1.73
2023-05-19T03:40:19.187Z,2.10
2023-05-19T03:43:22.065Z,1.83
2023-05-19T03:46:30.160Z,1.90
2023-05-19T03:49:46.571Z,2.00
2023-05-19T03:53:18.094Z,1.80
2023-05-19T03:56:23.302Z,1.80
2023-05-19T03:59:26.104Z,1.77
2023-05-19T04:02:28.599Z,1.80
2023-05-19T04:05:31.510Z,2.20
2023-05-19T04:08:35.282Z,2.10
2023-05-19T04:11:39.233Z,2.10
2023-05-19T04:14:41.756Z,2.67
2023-05-19T04:17:46.228Z,1.98
2023-05-19T04:20:48.576Z,2.20
2023-05-19T04:23:50.977Z,2.28
2023-05-19T04:26:53.866Z,2.20
2023-05-19T04:29:56.329Z,2.60
2023-05-19T04:33:00.081Z,2.00
2023-05-19T04:36:05.975Z,2.45
2023-05-19T04:39:11.815Z,2.28
2023-05-19T04:42:19.664Z,2.97
2023-05-19T04:45:23.534Z,2.20
2023-05-19T04:48:31.203Z,2.10
2023-05-19T04:51:33.488Z,3.20
2023-05-19T04:54:40.437Z,3.15
2023-05-19T04:57:43.032Z,2.47
2023-05-19T05:00:45.518Z,2.30
2023-05-19T05:03:47.969Z,2.45
2023-05-19T05:06:50.747Z,2.20
2023-05-19T05:09:53.873Z,2.55
2023-05-19T05:12:56.659Z,2.78
2023-05-19T05:15:59.646Z,2.25
2023-05-19T05:19:02.800Z,2.47
2023-05-19T05:22:06.509Z,2.15
2023-05-19T05:25:13.263Z,2.50
2023-05-19T05:28:15.841Z,2.42
2023-05-19T05:31:19.112Z,2.33
2023-05-19T05:34:22.056Z,3.13
2023-05-19T05:37:24.578Z,3.05
2023-05-19T05:40:27.826Z,2.55
2023-05-19T05:43:30.661Z,2.28
2023-05-19T05:46:35.977Z,3.28
2023-05-19T05:49:40.509Z,2.20
2023-05-19T05:52:47.546Z,2.63
2023-05-19T05:55:51.997Z,2.47
2023-05-19T05:58:55.672Z,3.03
2023-05-19T06:01:57.970Z,3.55
2023-05-19T06:05:00.625Z,3.10
2023-05-19T06:08:03.640Z,2.85
2023-05-19T06:11:09.517Z,2.65
2023-05-19T06:14:14.009Z,2.40
2023-05-19T06:17:39.388Z,2.70
2023-05-19T06:20:42.497Z,3.10
2023-05-19T06:23:44.948Z,3.00
2023-05-19T06:26:47.614Z,2.50
2023-05-19T06:29:51.818Z,2.30
2023-05-19T06:32:55.227Z,2.55
2023-05-19T06:36:00.283Z,2.38
2023-05-19T06:39:02.954Z,2.58
2023-05-19T06:42:07.102Z,2.70
2023-05-19T06:45:32.323Z,2.80
2023-05-19T06:48:37.312Z,2.83
2023-05-19T06:51:39.909Z,3.15
2023-05-19T06:54:42.324Z,3.30
2023-05-19T06:57:46.410Z,2.58
2023-05-19T07:00:49.820Z,2.15
2023-05-19T07:03:53.248Z,2.45
2023-05-19T07:06:56.121Z,2.30
2023-05-19T07:09:58.599Z,2.38
2023-05-19T07:13:02.168Z,2.35
2023-05-19T07:16:08.161Z,2.80
2023-05-19T07:19:10.795Z,3.15
2023-05-19T07:22:13.438Z,2.53
2023-05-19T07:25:15.905Z,2.35
2023-05-19T07:28:21.782Z,2.50
2023-05-19T07:31:24.164Z,2.60
2023-05-19T07:34:26.648Z,2.70
2023-05-19T07:37:28.846Z,2.40
2023-05-19T07:40:34.188Z,2.75
2023-05-19T07:43:36.689Z,2.63
2023-05-19T07:46:39.039Z,2.40
2023-05-19T07:49:41.344Z,2.08
2023-05-19T07:52:43.699Z,2.80
2023-05-19T07:55:47.019Z,2.42
2023-05-19T07:58:49.336Z,2.80
2023-05-19T08:01:51.636Z,2.22
2023-05-19T08:04:54.441Z,2.60
2023-05-19T08:07:57.698Z,2.60
2023-05-19T08:11:04.438Z,2.50
2023-05-19T08:14:06.914Z,2.28
2023-05-19T08:17:09.368Z,2.22
2023-05-19T08:20:14.994Z,2.47
2023-05-19T08:23:18.012Z,2.47
2023-05-19T08:26:21.811Z,2.10
2023-05-19T08:29:24.494Z,2.20
2023-05-19T08:32:27.056Z,2.33
2023-05-19T08:35:29.609Z,2.15
2023-05-19T08:38:32.097Z,2.15
2023-05-19T08:41:34.744Z,2.83
2023-05-19T08:44:40.188Z,2.35
2023-05-19T08:47:44.218Z,2.17
2023-05-19T08:51:09.523Z,2.45
2023-05-19T08:54:16.186Z,2.50
2023-05-19T08:57:19.404Z,2.30
2023-05-19T09:00:22.753Z,1.92
2023-05-19T09:03:26.765Z,2.13
2023-05-19T09:06:32.570Z,2.30
2023-05-19T09:09:35.144Z,1.90
2023-05-19T09:12:38.168Z,2.28
2023-05-19T09:15:41.669Z,2.10
2023-05-19T09:18:57.203Z,2.42
2023-05-19T09:22:01.395Z,2.20
2023-05-19T09:25:03.678Z,2.45
2023-05-19T09:28:09.322Z,2.10
2023-05-19T09:31:12.101Z,2.35
2023-05-19T09:34:14.496Z,2.10
2023-05-19T09:37:16.881Z,2.10
2023-05-19T09:40:19.390Z,2.33
2023-05-19T09:43:22.303Z,2.03
2023-05-19T09:46:28.769Z,2.17
2023-05-19T09:49:31.737Z,2.60
2023-05-19T09:52:38.891Z,2.28
2023-05-19T09:55:43.189Z,2.15
2023-05-19T09:58:46.115Z,2.30
2023-05-19T10:01:49.537Z,2.08
2023-05-19T10:04:52.968Z,2.83
2023-05-19T10:07:55.983Z,2.67
2023-05-19T10:10:59.133Z,2.38
2023-05-19T10:14:01.691Z,2.30
2023-05-19T10:17:04.611Z,2.35
2023-05-19T10:20:14.435Z,2.40
2023-05-19T10:23:17.120Z,2.20
2023-05-19T10:26:20.413Z,2.30
2023-05-19T10:29:27.982Z,2.35
2023-05-19T10:32:32.942Z,2.13
2023-05-19T10:36:00.943Z,2.33
2023-05-19T10:39:26.062Z,2.30
2023-05-19T10:42:45.200Z,2.75
2023-05-19T10:45:53.440Z,2.25
2023-05-19T10:48:56.180Z,2.42
2023-05-19T10:51:58.646Z,2.60
2023-05-19T10:55:02.344Z,2.00
2023-05-19T10:58:04.799Z,1.90
2023-05-19T11:01:14.557Z,2.00
2023-05-19T11:04:16.998Z,2.00
2023-05-19T11:07:21.894Z,2.40
2023-05-19T11:10:25.021Z,2.40
2023-05-19T11:13:28.503Z,1.88
2023-05-19T11:16:32.763Z,2.00
2023-05-19T11:19:36.113Z,1.90
2023-05-19T11:22:40.103Z,2.22
2023-05-19T11:25:43.341Z,2.15
2023-05-19T11:28:47.746Z,1.85
2023-05-19T11:31:52.071Z,1.90
2023-05-19T11:34:55.960Z,1.88
2023-05-19T11:37:59.628Z,1.65
2023-05-19T11:41:03.772Z,1.70
2023-05-19T11:44:11.289Z,2.00
2023-05-19T11:47:14.836Z,1.90
2023-05-19T11:50:17.474Z,1.67
2023-05-19T11:53:20.225Z,1.83
2023-05-19T11:56:22.656Z,1.65
2023-05-19T11:59:36.243Z,1.45
2023-05-19T12:02:38.923Z,1.92
2023-05-19T12:05:46.743Z,1.95
2023-05-19T12:08:52.257Z,1.70
2023-05-19T12:11:55.586Z,1.70
2023-05-19T12:14:57.911Z,1.90
2023-05-19T12:18:04.086Z,1.95
2023-05-19T12:21:07.109Z,1.67
2023-05-19T12:24:09.982Z,1.70
2023-05-19T12:27:20.285Z,1.60
2023-05-19T12:30:28.156Z,1.70
2023-05-19T12:33:33.673Z,1.58
2023-05-19T12:36:38.084Z,1.98
2023-05-19T12:39:42.272Z,1.70
2023-05-19T12:42:48.900Z,1.80
2023-05-19T12:45:51.504Z,1.60
2023-05-19T12:49:00.917Z,1.70
2023-05-19T12:52:07.103Z,1.92
2023-05-19T12:55:14.439Z,1.80
2023-05-19T12:58:17.268Z,1.95
2023-05-19T13:01:19.851Z,1.52
2023-05-19T13:04:22.357Z,2.00
2023-05-19T13:07:24.782Z,2.10
2023-05-19T13:10:28.048Z,1.88
2023-05-19T13:13:30.532Z,1.80
2023-05-19T13:16:32.939Z,1.48
2023-05-19T13:19:35.706Z,1.73
2023-05-19T13:22:38.237Z,1.70
2023-05-19T13:25:41.713Z,2.22
2023-05-19T13:28:44.093Z,1.77
2023-05-19T13:31:46.542Z,1.83
2023-05-19T13:34:49.149Z,2.00
2023-05-19T13:37:51.506Z,2.20
2023-05-19T13:40:54.034Z,1.85
2023-05-19T13:43:59.879Z,1.83
2023-05-19T13:47:02.284Z,1.92
2023-05-19T13:50:05.683Z,1.77
2023-05-19T13:53:08.751Z,1.77
2023-05-19T13:56:11.138Z,1.95
2023-05-19T13:59:13.807Z,2.10
2023-05-19T14:02:16.477Z,1.80
2023-05-19T14:05:18.996Z,2.00
2023-05-19T14:08:22.346Z,2.28
2023-05-19T14:11:24.788Z,1.95
2023-05-19T14:14:27.104Z,1.90
2023-05-19T14:17:29.611Z,1.88
2023-05-19T14:20:32.168Z,2.05
2023-05-19T14:23:34.868Z,1.80
2023-05-19T14:26:37.237Z,1.90
2023-05-19T14:29:39.594Z,1.80
2023-05-19T14:32:41.944Z,1.70
2023-05-19T14:35:44.334Z,1.50
2023-05-19T14:38:46.702Z,1.67
2023-05-19T14:41:51.350Z,2.63
2023-05-19T14:44:53.630Z,1.85
2023-05-19T14:47:56.194Z,1.50
2023-05-19T14:50:58.657Z,1.45
2023-05-19T14:54:02.477Z,1.70
2023-05-19T14:57:07.449Z,1.73
2023-05-19T15:00:10.688Z,1.80
2023-05-19T15:03:13.113Z,1.67
2023-05-19T15:06:15.620Z,1.63
2023-05-19T15:09:17.967Z,1.90
2023-05-19T15:12:20.557Z,1.90
2023-05-19T15:15:22.775Z,1.92
2023-05-19T15:18:26.361Z,1.88
2023-05-19T15:21:28.872Z,1.80
2023-05-19T15:24:31.263Z,1.55
2023-05-19T15:27:36.618Z,1.35
2023-05-19T15:30:39.053Z,1.23
2023-05-19T15:33:41.640Z,1.15
2023-05-19T15:36:44.242Z,1.38
2023-05-19T15:39:46.545Z,1.35
2023-05-19T15:42:48.793Z,1.33
2023-05-19T15:45:55.052Z,1.60
2023-05-19T15:48:57.546Z,1.55
2023-05-19T15:51:59.813Z,1.30
2023-05-19T15:55:02.144Z,1.25
2023-05-19T15:58:04.477Z,1.40
2023-05-19T16:01:07.984Z,1.13
2023-05-19T16:04:10.321Z,1.20
2023-05-19T16:07:12.723Z,1.20
2023-05-19T16:10:15.081Z,1.30
2023-05-19T16:13:17.591Z,1.50
2023-05-19T16:16:19.994Z,1.30
2023-05-19T16:19:24.054Z,1.40
2023-05-19T16:22:26.545Z,1.17
2023-05-19T16:25:29.261Z,1.20
2023-05-19T16:28:32.719Z,1.00
2023-05-19T16:31:35.041Z,1.30
2023-05-19T16:34:37.527Z,1.30
2023-05-19T16:37:40.113Z,1.40
2023-05-19T16:40:42.479Z,1.30
2023-05-19T16:43:44.935Z,1.58
2023-05-19T16:46:47.159Z,1.20
2023-05-19T16:49:49.632Z,1.30
2023-05-19T16:52:51.893Z,1.13
2023-05-19T16:55:54.199Z,1.10
2023-05-19T16:58:56.522Z,1.35
2023-05-19T17:01:58.977Z,1.20
2023-05-19T17:05:01.312Z,2.03
2023-05-19T17:08:03.607Z,1.27
2023-05-19T17:11:06.761Z,1.23
2023-05-19T17:14:09.487Z,1.60
2023-05-19T17:17:12.008Z,1.00
2023-05-19T17:20:14.427Z,1.00
2023-05-19T17:23:17.123Z,1.17
2023-05-19T17:26:19.532Z,1.10
2023-05-19T17:29:21.877Z,1.20
2023-05-19T17:32:28.395Z,1.10
2023-05-19T17:35:30.819Z,1.10
2023-05-19T17:38:33.356Z,1.00
2023-05-19T17:41:35.630Z,1.00
2023-05-19T17:44:38.047Z,1.30
2023-05-19T17:47:40.373Z,1.50
2023-05-19T17:50:42.788Z,0.90
2023-05-19T17:53:45.704Z,1.00
2023-05-19T17:56:49.487Z,0.90
2023-05-19T17:59:52.077Z,1.00
2023-05-19T18:02:54.868Z,1.00
2023-05-19T18:05:58.326Z,1.10
2023-05-19T18:09:02.643Z,1.48
2023-05-19T18:12:06.391Z,1.13
2023-05-19T18:15:08.961Z,0.95
2023-05-19T18:18:12.415Z,1.20
2023-05-19T18:21:18.141Z,1.00
2023-05-19T18:24:20.606Z,1.30
2023-05-19T18:27:22.877Z,1.00
2023-05-19T18:30:25.189Z,1.00
2023-05-19T18:33:28.762Z,1.10
2023-05-19T18:36:33.131Z,1.15
2023-05-19T18:39:35.375Z,1.10
2023-05-19T18:42:38.052Z,1.20
2023-05-19T18:45:43.283Z,1.45
2023-05-19T18:48:45.769Z,1.20
2023-05-19T18:51:48.747Z,1.50
2023-05-19T18:54:51.999Z,1.30
2023-05-19T18:57:55.296Z,1.38
2023-05-19T19:00:58.264Z,1.45
2023-05-19T19:04:01.275Z,1.40
2023-05-19T19:07:06.016Z,1.30
2023-05-19T19:10:09.437Z,1.30
2023-05-19T19:13:11.751Z,1.50
2023-05-19T19:16:14.377Z,1.35
2023-05-19T19:19:17.709Z,1.20
2023-05-19T19:22:20.219Z,1.73
2023-05-19T19:25:23.886Z,1.50
2023-05-19T19:28:27.098Z,1.60
2023-05-19T19:31:29.970Z,1.60
2023-05-19T19:34:32.374Z,1.48
2023-05-19T19:37:35.030Z,1.35
2023-05-19T19:40:37.603Z,1.58
2023-05-19T19:43:39.902Z,1.52
2023-05-19T19:46:42.187Z,1.60
2023-05-19T19:49:45.962Z,1.60
2023-05-19T19:52:48.497Z,1.70
2023-05-19T19:56:01.258Z,1.65
2023-05-19T19:59:04.191Z,1.67
2023-05-19T20:02:07.792Z,1.90
2023-05-19T20:05:10.595Z,1.90
2023-05-19T20:08:14.045Z,1.90
2023-05-19T20:11:18.292Z,1.80
2023-05-19T20:14:20.580Z,2.05
2023-05-19T20:17:23.970Z,2.20
2023-05-19T20:20:26.947Z,2.00
2023-05-19T20:23:29.270Z,1.90
2023-05-19T20:26:31.701Z,1.40
2023-05-19T20:29:35.129Z,2.10
2023-05-19T20:32:37.729Z,1.90
2023-05-19T20:35:40.031Z,2.25
2023-05-19T20:38:42.602Z,1.98
2023-05-19T20:41:44.932Z,2.08
2023-05-19T20:44:47.256Z,2.30
2023-05-19T20:47:49.568Z,1.90
2023-05-19T20:50:52.876Z,2.10
2023-05-19T20:53:55.119Z,2.30
2023-05-19T20:56:57.306Z,1.90
2023-05-19T20:59:59.803Z,1.95
2023-05-19T21:03:02.172Z,1.95
2023-05-19T21:06:04.708Z,2.58
2023-05-19T21:09:07.308Z,2.53
2023-05-19T21:12:09.631Z,2.30
2023-05-19T21:15:12.276Z,2.38
2023-05-19T21:18:14.660Z,2.20
2023-05-19T21:21:17.057Z,2.78
2023-05-19T21:24:19.624Z,2.30
2023-05-19T21:27:22.221Z,2.38
2023-05-19T21:30:25.349Z,2.45
2023-05-19T21:33:27.637Z,2.78
2023-05-19T21:36:30.011Z,3.20
2023-05-19T21:39:32.294Z,3.05
2023-05-19T21:42:35.046Z,3.33
2023-05-19T21:45:38.395Z,2.92
2023-05-19T21:48:40.790Z,3.15
2023-05-19T21:51:43.114Z,3.33
2023-05-19T21:54:45.863Z,3.80
2023-05-19T21:57:48.070Z,3.13
2023-05-19T22:00:56.891Z,3.13
2023-05-19T22:03:59.237Z,3.45
2023-05-19T22:07:01.686Z,3.05
2023-05-19T22:10:04.622Z,3.30
2023-05-19T22:13:07.476Z,3.10
2023-05-19T22:16:09.838Z,3.30
2023-05-19T22:19:12.448Z,3.45
2023-05-19T22:22:15.018Z,2.88
2023-05-19T22:25:17.456Z,3.60
2023-05-19T22:28:19.682Z,3.20
2023-05-19T22:31:22.049Z,3.30
2023-05-19T22:34:24.790Z,2.75
2023-05-19T22:37:29.122Z,3.42
2023-05-19T22:40:32.796Z,3.50
2023-05-19T22:43:35.423Z,3.35
2023-05-19T22:46:37.866Z,3.47
2023-05-19T22:49:41.191Z,3.70
2023-05-19T22:52:43.490Z,3.95
2023-05-19T22:55:45.911Z,3.45
2023-05-19T22:58:48.189Z,3.50
2023-05-19T23:01:50.468Z,3.75
2023-05-19T23:04:52.747Z,3.35
2023-05-19T23:07:55.029Z,2.90
2023-05-19T23:11:01.064Z,3.30
2023-05-19T23:14:03.454Z,3.38
2023-05-19T23:17:05.904Z,3.35
2023-05-19T23:20:08.586Z,3.67
2023-05-19T23:23:11.046Z,3.22
2023-05-19T23:26:16.389Z,3.50
2023-05-19T23:29:18.729Z,3.60
2023-05-19T23:32:21.005Z,3.05
2023-05-19T23:35:23.292Z,3.22
2023-05-19T23:38:27.292Z,3.33
2023-05-19T23:41:29.636Z,3.42
2023-05-19T23:44:31.904Z,3.55
2023-05-19T23:47:34.306Z,3.15
2023-05-19T23:50:36.864Z,3.47
2023-05-19T23:53:39.342Z,3.20
2023-05-19T23:56:41.663Z,3.60
2023-05-19T23:59:43.993Z,3.58
